Tilbury, Canada
Current Conditions -  °F | °C
As of 3:00 PM on Wednesday 28 Jan 2015 (Local Time) from CYCK Reporting Station
Clear Clear  
Wind Chill: 13°   Ceiling: Unl
Heat Index: 23°   Visibility: 9mi
Dew Point: 18°   Wind: 9mph
Humidity: 80%   Direction: 220°SW
Pressure: 30.31"   Gusts: NA
Location:  42.25°N, 82.43°W
Report Text: CYCK 282000Z AUTO 22008KT 9SM CLR M05/M08 A3031 RMK SLP277
Loading
Personal Weather Stations






























Interactive Weather Map New forecast layout! Learn more

10-Day Weather Forecast

Advertisements
Track Severe Weather on mobile